Mossy Head, Florida
Current Conditions -  °F | °C
As of 11:35 AM on Wednesday 26 Nov 2014 (Local Time) from K54J Reporting Station
Clear Clear  
Wind Chill: 56°   Ceiling: Unl
Heat Index: 56°   Visibility: 10mi
Dew Point: 29°   Wind: 8mph
Humidity: 35%   Direction: 330°NNW
Pressure: 30.2"   Gusts: NA
Location:  30.76°N, 86.32°W
Report Text: K54J 261735Z AUTO 33007KT 10SM CLR 14/M02 A3020 RMK AO2 T01361017
Loading
Personal Weather Stations






























Interactive Weather Map New forecast layout! Learn more

10-Day Weather Forecast

Advertisements
Track Severe Weather on mobile